LIM weather

Jorge Chávez International Airport
Lima, Lima Region, Perú

Public forecast

Using degrees Celsius for public forecast. Weather courtesy of forecast.io.

Current aviation weather report (METAR) for Jorge Chávez International Airport

Retrieved 2019/12/05 21:00 UTC (56 minutes ago):

SPJC 052100Z 17012KT 9999 FEW010 SCT230 22/18 Q1013 NOSIG PP000

Closest aviation forecast (TAF) to Jorge Chávez International Airport

Retrieved 2019/12/05 18:35 UTC (3 hours ago):

TAF SPJC 051700Z 0518/0618 18014KT CAVOK TX24/0519Z TN18/0611Z BECMG 0522/0601 SCT020 BKN090 FM070200 16008KT 9999 BKN020 BKN080 TEMPO 0610/0612 BKN014 BECMG 0613/0617 18010KT CAVOK